Terminal Aerodrome Forecast
Issued by NWS

Home | Current Version | Previous Version | Text Only | Print | Product List | Glossary On
Versions: 1 2 3 4 5 6 7 8 9 10 11 12 13 14 15 16
000
FTUS46 KPQR 241742
TAFONP
TAF
KONP 241742Z 2418/2518 07010KT P6SM SCT040 OVC080
     FM242000 08010KT 5SM -RA BKN050
     FM250200 12012KT 5SM -RA SCT050 BKN080
     FM250900 15010KT P6SM -RA SCT025 OVC050=

USA.gov is the U.S. government's official web portal to all federal, state and local government web resources and services.